Beech Island, South Carolina
Current Conditions -  °F | °C
As of 3:53 PM on Friday 19 Dec 2014 (Local Time) from KAGS Reporting Station
Clear Clear  
Wind Chill: 62°   Ceiling: Unl
Heat Index: 62°   Visibility: 10mi
Dew Point: 38°   Wind: 3mph
Humidity: 41%   Direction: 250°WSW
Pressure: 30.09"   Gusts: NA
Location:  33.43°N, 81.89°W
Report Text: KAGS 192053Z 25003KT 10SM CLR 17/03 A3009 RMK AO2 SLP188 T01670033 55008
Loading
Personal Weather Stations






























Interactive Weather Map New forecast layout! Learn more

10-Day Weather Forecast

Advertisements
Track Severe Weather on mobile